sensor_id;sensor_type;location;lat;lon;timestamp;P1;durP1;ratioP1;P2;durP2;ratioP2
44214;SDS011;29884;47.450;19.124;2022-08-19T00:01:20;7.40;;;6.82;;
44214;SDS011;29884;47.450;19.124;2022-08-19T00:03:46;7.00;;;6.50;;
44214;SDS011;29884;47.450;19.124;2022-08-19T00:06:13;7.93;;;6.75;;
44214;SDS011;29884;47.450;19.124;2022-08-19T00:08:39;7.13;;;6.43;;
44214;SDS011;29884;47.450;19.124;2022-08-19T00:11:05;7.78;;;7.05;;
44214;SDS011;29884;47.450;19.124;2022-08-19T00:13:32;6.90;;;6.25;;
44214;SDS011;29884;47.450;19.124;2022-08-19T00:15:58;6.88;;;6.28;;
44214;SDS011;29884;47.450;19.124;2022-08-19T00:18:24;7.70;;;6.10;;
44214;SDS011;29884;47.450;19.124;2022-08-19T00:20:50;6.57;;;6.07;;
44214;SDS011;29884;47.450;19.124;2022-08-19T00:23:16;7.15;;;6.65;;
44214;SDS011;29884;47.450;19.124;2022-08-19T00:25:42;7.10;;;6.50;;
44214;SDS011;29884;47.450;19.124;2022-08-19T00:28:08;7.25;;;6.55;;
44214;SDS011;29884;47.450;19.124;2022-08-19T00:30:34;7.47;;;6.10;;
44214;SDS011;29884;47.450;19.124;2022-08-19T00:33:00;7.18;;;6.78;;
44214;SDS011;29884;47.450;19.124;2022-08-19T00:35:26;7.43;;;6.53;;
44214;SDS011;29884;47.450;19.124;2022-08-19T00:37:52;8.52;;;7.03;;
44214;SDS011;29884;47.450;19.124;2022-08-19T00:40:18;7.85;;;6.65;;
44214;SDS011;29884;47.450;19.124;2022-08-19T00:42:45;6.65;;;6.05;;
44214;SDS011;29884;47.450;19.124;2022-08-19T00:45:13;7.85;;;6.93;;
44214;SDS011;29884;47.450;19.124;2022-08-19T00:47:42;7.18;;;6.47;;
44214;SDS011;29884;47.450;19.124;2022-08-19T00:50:09;7.22;;;6.53;;
44214;SDS011;29884;47.450;19.124;2022-08-19T00:52:39;7.60;;;6.90;;
44214;SDS011;29884;47.450;19.124;2022-08-19T00:57:38;10.63;;;6.85;;
44214;SDS011;29884;47.450;19.124;2022-08-19T01:00:11;8.48;;;7.50;;
44214;SDS011;29884;47.450;19.124;2022-08-19T01:02:39;7.38;;;6.55;;
44214;SDS011;29884;47.450;19.124;2022-08-19T01:05:08;8.20;;;6.32;;
44214;SDS011;29884;47.450;19.124;2022-08-19T01:07:36;7.05;;;6.55;;
44214;SDS011;29884;47.450;19.124;2022-08-19T01:10:06;7.93;;;7.32;;
44214;SDS011;29884;47.450;19.124;2022-08-19T01:12:34;8.23;;;6.10;;
44214;SDS011;29884;47.450;19.124;2022-08-19T01:15:01;7.22;;;6.63;;
44214;SDS011;29884;47.450;19.124;2022-08-19T01:17:27;7.70;;;7.20;;
44214;SDS011;29884;47.450;19.124;2022-08-19T01:19:53;8.05;;;7.32;;
44214;SDS011;29884;47.450;19.124;2022-08-19T01:24:45;7.40;;;6.65;;
44214;SDS011;29884;47.450;19.124;2022-08-19T01:27:11;8.10;;;7.40;;
44214;SDS011;29884;47.450;19.124;2022-08-19T01:29:40;7.68;;;7.03;;
44214;SDS011;29884;47.450;19.124;2022-08-19T01:32:07;7.80;;;7.18;;
44214;SDS011;29884;47.450;19.124;2022-08-19T01:34:36;8.27;;;7.05;;
44214;SDS011;29884;47.450;19.124;2022-08-19T01:37:09;7.97;;;7.22;;
44214;SDS011;29884;47.450;19.124;2022-08-19T01:39:36;9.05;;;7.28;;
44214;SDS011;29884;47.450;19.124;2022-08-19T01:42:04;8.52;;;6.90;;
44214;SDS011;29884;47.450;19.124;2022-08-19T01:44:32;8.20;;;7.35;;
44214;SDS011;29884;47.450;19.124;2022-08-19T01:46:58;7.88;;;6.68;;
44214;SDS011;29884;47.450;19.124;2022-08-19T01:49:24;7.90;;;7.18;;
44214;SDS011;29884;47.450;19.124;2022-08-19T01:51:53;8.10;;;7.47;;
44214;SDS011;29884;47.450;19.124;2022-08-19T01:54:20;8.90;;;7.30;;
44214;SDS011;29884;47.450;19.124;2022-08-19T01:56:47;8.32;;;7.63;;
44214;SDS011;29884;47.450;19.124;2022-08-19T01:59:16;7.40;;;6.90;;
44214;SDS011;29884;47.450;19.124;2022-08-19T02:01:44;7.95;;;7.15;;
44214;SDS011;29884;47.450;19.124;2022-08-19T02:04:10;7.70;;;7.00;;
44214;SDS011;29884;47.450;19.124;2022-08-19T02:06:36;8.23;;;7.43;;
44214;SDS011;29884;47.450;19.124;2022-08-19T02:09:03;7.25;;;6.65;;
44214;SDS011;29884;47.450;19.124;2022-08-19T02:11:31;7.90;;;7.20;;
44214;SDS011;29884;47.450;19.124;2022-08-19T02:13:58;8.07;;;7.28;;
44214;SDS011;29884;47.450;19.124;2022-08-19T02:16:27;7.60;;;7.00;;
44214;SDS011;29884;47.450;19.124;2022-08-19T02:18:53;8.02;;;7.43;;
44214;SDS011;29884;47.450;19.124;2022-08-19T02:21:20;7.63;;;7.13;;
44214;SDS011;29884;47.450;19.124;2022-08-19T02:23:47;7.20;;;6.63;;
44214;SDS011;29884;47.450;19.124;2022-08-19T02:26:14;7.35;;;6.85;;
44214;SDS011;29884;47.450;19.124;2022-08-19T02:28:41;8.30;;;7.45;;
44214;SDS011;29884;47.450;19.124;2022-08-19T02:31:14;7.68;;;7.05;;
44214;SDS011;29884;47.450;19.124;2022-08-19T02:33:42;8.20;;;7.50;;
44214;SDS011;29884;47.450;19.124;2022-08-19T02:36:09;7.85;;;7.15;;
44214;SDS011;29884;47.450;19.124;2022-08-19T02:38:35;7.28;;;6.78;;
44214;SDS011;29884;47.450;19.124;2022-08-19T02:41:24;8.27;;;7.50;;
44214;SDS011;29884;47.450;19.124;2022-08-19T02:43:49;7.75;;;6.80;;
44214;SDS011;29884;47.450;19.124;2022-08-19T02:46:18;8.05;;;7.55;;
44214;SDS011;29884;47.450;19.124;2022-08-19T02:48:50;11.00;;;7.88;;
44214;SDS011;29884;47.450;19.124;2022-08-19T02:51:18;7.97;;;7.38;;
44214;SDS011;29884;47.450;19.124;2022-08-19T02:53:46;10.80;;;8.48;;
44214;SDS011;29884;47.450;19.124;2022-08-19T02:56:12;8.05;;;7.25;;
44214;SDS011;29884;47.450;19.124;2022-08-19T02:58:38;8.90;;;7.93;;
44214;SDS011;29884;47.450;19.124;2022-08-19T03:01:04;8.15;;;7.45;;
44214;SDS011;29884;47.450;19.124;2022-08-19T03:03:30;8.52;;;7.75;;
44214;SDS011;29884;47.450;19.124;2022-08-19T03:06:07;9.18;;;7.28;;
44214;SDS011;29884;47.450;19.124;2022-08-19T03:08:38;8.93;;;8.05;;
44214;SDS011;29884;47.450;19.124;2022-08-19T03:11:06;8.00;;;7.30;;
44214;SDS011;29884;47.450;19.124;2022-08-19T03:13:37;8.98;;;8.10;;
44214;SDS011;29884;47.450;19.124;2022-08-19T03:16:04;8.75;;;7.95;;
44214;SDS011;29884;47.450;19.124;2022-08-19T03:18:30;8.57;;;7.78;;
44214;SDS011;29884;47.450;19.124;2022-08-19T03:20:56;9.52;;;7.95;;
44214;SDS011;29884;47.450;19.124;2022-08-19T03:23:22;9.40;;;8.07;;
44214;SDS011;29884;47.450;19.124;2022-08-19T03:25:49;10.15;;;7.97;;
44214;SDS011;29884;47.450;19.124;2022-08-19T03:28:16;10.18;;;7.13;;
44214;SDS011;29884;47.450;19.124;2022-08-19T03:30:43;10.10;;;7.72;;
44214;SDS011;29884;47.450;19.124;2022-08-19T03:33:23;8.38;;;7.57;;
44214;SDS011;29884;47.450;19.124;2022-08-19T03:36:03;7.72;;;7.03;;
44214;SDS011;29884;47.450;19.124;2022-08-19T03:38:30;7.55;;;6.93;;
44214;SDS011;29884;47.450;19.124;2022-08-19T03:40:57;8.52;;;7.72;;
44214;SDS011;29884;47.450;19.124;2022-08-19T03:43:26;9.18;;;8.27;;
44214;SDS011;29884;47.450;19.124;2022-08-19T03:46:00;9.07;;;8.18;;
44214;SDS011;29884;47.450;19.124;2022-08-19T03:48:28;9.05;;;8.25;;
44214;SDS011;29884;47.450;19.124;2022-08-19T03:50:55;9.00;;;7.50;;
44214;SDS011;29884;47.450;19.124;2022-08-19T03:53:22;8.18;;;7.43;;
44214;SDS011;29884;47.450;19.124;2022-08-19T03:55:48;9.85;;;7.68;;
44214;SDS011;29884;47.450;19.124;2022-08-19T03:58:14;9.23;;;8.43;;
44214;SDS011;29884;47.450;19.124;2022-08-19T04:00:41;8.50;;;7.90;;
44214;SDS011;29884;47.450;19.124;2022-08-19T04:03:07;8.48;;;7.65;;
44214;SDS011;29884;47.450;19.124;2022-08-19T04:05:33;9.13;;;8.25;;
44214;SDS011;29884;47.450;19.124;2022-08-19T04:07:59;7.97;;;7.20;;
44214;SDS011;29884;47.450;19.124;2022-08-19T04:10:26;9.02;;;8.13;;
44214;SDS011;29884;47.450;19.124;2022-08-19T04:12:53;8.75;;;8.05;;
44214;SDS011;29884;47.450;19.124;2022-08-19T04:15:18;8.70;;;8.00;;
44214;SDS011;29884;47.450;19.124;2022-08-19T04:17:45;8.35;;;7.63;;
44214;SDS011;29884;47.450;19.124;2022-08-19T04:20:11;9.60;;;8.68;;
44214;SDS011;29884;47.450;19.124;2022-08-19T04:22:37;10.27;;;9.38;;
44214;SDS011;29884;47.450;19.124;2022-08-19T04:25:03;12.52;;;7.97;;
44214;SDS011;29884;47.450;19.124;2022-08-19T04:27:28;12.85;;;8.73;;
44214;SDS011;29884;47.450;19.124;2022-08-19T04:29:54;10.68;;;9.68;;
44214;SDS011;29884;47.450;19.124;2022-08-19T04:32:20;10.18;;;9.23;;
44214;SDS011;29884;47.450;19.124;2022-08-19T04:34:46;9.07;;;8.48;;
44214;SDS011;29884;47.450;19.124;2022-08-19T04:37:12;9.25;;;8.50;;
44214;SDS011;29884;47.450;19.124;2022-08-19T04:39:39;9.63;;;8.25;;
44214;SDS011;29884;47.450;19.124;2022-08-19T04:42:23;11.82;;;8.23;;
44214;SDS011;29884;47.450;19.124;2022-08-19T04:45:08;8.88;;;8.10;;
44214;SDS011;29884;47.450;19.124;2022-08-19T04:47:37;9.30;;;8.27;;
44214;SDS011;29884;47.450;19.124;2022-08-19T04:50:04;8.90;;;8.20;;
44214;SDS011;29884;47.450;19.124;2022-08-19T04:52:30;9.75;;;8.75;;
44214;SDS011;29884;47.450;19.124;2022-08-19T04:54:57;8.77;;;8.00;;
44214;SDS011;29884;47.450;19.124;2022-08-19T04:57:23;9.20;;;8.50;;
44214;SDS011;29884;47.450;19.124;2022-08-19T04:59:49;9.35;;;8.15;;
44214;SDS011;29884;47.450;19.124;2022-08-19T05:02:19;8.32;;;7.53;;
44214;SDS011;29884;47.450;19.124;2022-08-19T05:04:49;8.55;;;7.60;;
44214;SDS011;29884;47.450;19.124;2022-08-19T05:07:15;8.77;;;7.95;;
44214;SDS011;29884;47.450;19.124;2022-08-19T05:09:41;7.95;;;7.30;;
44214;SDS011;29884;47.450;19.124;2022-08-19T05:12:07;9.23;;;8.00;;
44214;SDS011;29884;47.450;19.124;2022-08-19T05:14:33;7.53;;;6.88;;
44214;SDS011;29884;47.450;19.124;2022-08-19T05:17:01;8.60;;;7.15;;
44214;SDS011;29884;47.450;19.124;2022-08-19T05:19:27;8.13;;;7.32;;
44214;SDS011;29884;47.450;19.124;2022-08-19T05:22:11;8.20;;;6.90;;
44214;SDS011;29884;47.450;19.124;2022-08-19T05:24:56;10.82;;;7.57;;
44214;SDS011;29884;47.450;19.124;2022-08-19T05:27:21;7.70;;;6.82;;
44214;SDS011;29884;47.450;19.124;2022-08-19T05:29:47;7.80;;;7.13;;
44214;SDS011;29884;47.450;19.124;2022-08-19T05:32:13;12.27;;;7.18;;
44214;SDS011;29884;47.450;19.124;2022-08-19T05:34:39;7.45;;;6.75;;
44214;SDS011;29884;47.450;19.124;2022-08-19T05:37:05;7.28;;;6.68;;
44214;SDS011;29884;47.450;19.124;2022-08-19T05:39:33;8.63;;;7.45;;
44214;SDS011;29884;47.450;19.124;2022-08-19T05:42:03;9.18;;;7.18;;
44214;SDS011;29884;47.450;19.124;2022-08-19T05:44:32;8.05;;;6.18;;
44214;SDS011;29884;47.450;19.124;2022-08-19T05:46:59;7.15;;;5.97;;
44214;SDS011;29884;47.450;19.124;2022-08-19T05:49:27;8.23;;;6.55;;
44214;SDS011;29884;47.450;19.124;2022-08-19T05:51:54;6.43;;;5.93;;
44214;SDS011;29884;47.450;19.124;2022-08-19T05:54:21;9.48;;;6.57;;
44214;SDS011;29884;47.450;19.124;2022-08-19T05:56:48;6.43;;;5.82;;
44214;SDS011;29884;47.450;19.124;2022-08-19T05:59:15;6.50;;;5.90;;
44214;SDS011;29884;47.450;19.124;2022-08-19T06:01:43;8.70;;;5.03;;
44214;SDS011;29884;47.450;19.124;2022-08-19T06:04:11;6.13;;;5.43;;
44214;SDS011;29884;47.450;19.124;2022-08-19T06:09:09;10.30;;;5.15;;
44214;SDS011;29884;47.450;19.124;2022-08-19T06:14:02;9.18;;;5.40;;
44214;SDS011;29884;47.450;19.124;2022-08-19T06:16:33;8.15;;;5.38;;
44214;SDS011;29884;47.450;19.124;2022-08-19T06:19:07;6.30;;;5.00;;
44214;SDS011;29884;47.450;19.124;2022-08-19T06:21:35;5.85;;;5.35;;
44214;SDS011;29884;47.450;19.124;2022-08-19T06:24:03;5.40;;;4.80;;
44214;SDS011;29884;47.450;19.124;2022-08-19T06:26:31;4.68;;;4.20;;
44214;SDS011;29884;47.450;19.124;2022-08-19T06:28:59;6.80;;;5.28;;
44214;SDS011;29884;47.450;19.124;2022-08-19T06:31:26;5.97;;;5.45;;
44214;SDS011;29884;47.450;19.124;2022-08-19T06:33:53;6.40;;;4.85;;
44214;SDS011;29884;47.450;19.124;2022-08-19T06:38:59;4.57;;;4.28;;
44214;SDS011;29884;47.450;19.124;2022-08-19T06:41:30;4.97;;;4.45;;
44214;SDS011;29884;47.450;19.124;2022-08-19T06:43:59;5.50;;;4.30;;
44214;SDS011;29884;47.450;19.124;2022-08-19T06:46:28;5.68;;;4.80;;
44214;SDS011;29884;47.450;19.124;2022-08-19T06:48:55;4.90;;;4.60;;
44214;SDS011;29884;47.450;19.124;2022-08-19T06:51:22;5.50;;;5.10;;
44214;SDS011;29884;47.450;19.124;2022-08-19T06:53:49;5.63;;;5.18;;
44214;SDS011;29884;47.450;19.124;2022-08-19T06:56:18;5.18;;;4.60;;
44214;SDS011;29884;47.450;19.124;2022-08-19T06:58:46;5.85;;;4.50;;
44214;SDS011;29884;47.450;19.124;2022-08-19T07:01:15;5.78;;;5.28;;
44214;SDS011;29884;47.450;19.124;2022-08-19T07:03:41;5.97;;;4.60;;
44214;SDS011;29884;47.450;19.124;2022-08-19T07:06:08;7.68;;;4.90;;
44214;SDS011;29884;47.450;19.124;2022-08-19T07:08:36;5.10;;;4.70;;
44214;SDS011;29884;47.450;19.124;2022-08-19T07:11:07;5.55;;;5.00;;
44214;SDS011;29884;47.450;19.124;2022-08-19T07:13:34;4.90;;;4.47;;
44214;SDS011;29884;47.450;19.124;2022-08-19T07:16:08;7.18;;;5.13;;
44214;SDS011;29884;47.450;19.124;2022-08-19T07:18:36;4.88;;;4.45;;
44214;SDS011;29884;47.450;19.124;2022-08-19T07:21:07;4.90;;;4.50;;
44214;SDS011;29884;47.450;19.124;2022-08-19T07:23:36;5.55;;;4.15;;
44214;SDS011;29884;47.450;19.124;2022-08-19T07:26:21;6.10;;;4.97;;
44214;SDS011;29884;47.450;19.124;2022-08-19T07:28:55;5.20;;;4.72;;
44214;SDS011;29884;47.450;19.124;2022-08-19T07:31:23;5.68;;;4.88;;
44214;SDS011;29884;47.450;19.124;2022-08-19T07:33:51;5.38;;;4.57;;
44214;SDS011;29884;47.450;19.124;2022-08-19T07:36:19;5.13;;;4.63;;
44214;SDS011;29884;47.450;19.124;2022-08-19T07:38:47;5.32;;;5.03;;
44214;SDS011;29884;47.450;19.124;2022-08-19T07:41:16;5.80;;;4.80;;
44214;SDS011;29884;47.450;19.124;2022-08-19T07:43:44;4.75;;;4.43;;
44214;SDS011;29884;47.450;19.124;2022-08-19T07:46:10;4.88;;;4.45;;
44214;SDS011;29884;47.450;19.124;2022-08-19T07:48:38;5.93;;;4.97;;
44214;SDS011;29884;47.450;19.124;2022-08-19T07:51:06;5.32;;;4.85;;
44214;SDS011;29884;47.450;19.124;2022-08-19T07:53:33;5.10;;;4.60;;
44214;SDS011;29884;47.450;19.124;2022-08-19T07:56:01;5.43;;;4.95;;
44214;SDS011;29884;47.450;19.124;2022-08-19T07:58:31;5.53;;;5.07;;
44214;SDS011;29884;47.450;19.124;2022-08-19T08:00:59;5.50;;;5.10;;
44214;SDS011;29884;47.450;19.124;2022-08-19T08:03:25;5.30;;;4.90;;
44214;SDS011;29884;47.450;19.124;2022-08-19T08:06:12;6.53;;;4.65;;
44214;SDS011;29884;47.450;19.124;2022-08-19T08:08:57;5.53;;;4.93;;
44214;SDS011;29884;47.450;19.124;2022-08-19T08:11:43;4.55;;;4.25;;
44214;SDS011;29884;47.450;19.124;2022-08-19T08:14:18;7.63;;;5.15;;
44214;SDS011;29884;47.450;19.124;2022-08-19T08:16:50;5.05;;;4.75;;
44214;SDS011;29884;47.450;19.124;2022-08-19T08:19:18;5.75;;;5.20;;
44214;SDS011;29884;47.450;19.124;2022-08-19T08:21:46;5.53;;;5.03;;
44214;SDS011;29884;47.450;19.124;2022-08-19T08:24:12;5.15;;;4.70;;
44214;SDS011;29884;47.450;19.124;2022-08-19T08:26:39;5.40;;;4.95;;
44214;SDS011;29884;47.450;19.124;2022-08-19T08:29:05;4.93;;;4.65;;
44214;SDS011;29884;47.450;19.124;2022-08-19T08:31:35;4.97;;;4.57;;
44214;SDS011;29884;47.450;19.124;2022-08-19T08:34:01;4.72;;;4.32;;
44214;SDS011;29884;47.450;19.124;2022-08-19T08:36:27;5.55;;;5.15;;
44214;SDS011;29884;47.450;19.124;2022-08-19T08:38:53;8.45;;;4.88;;
44214;SDS011;29884;47.450;19.124;2022-08-19T08:41:32;5.15;;;4.75;;
44214;SDS011;29884;47.450;19.124;2022-08-19T08:44:42;5.57;;;5.05;;
44214;SDS011;29884;47.450;19.124;2022-08-19T08:47:17;5.20;;;4.70;;
44214;SDS011;29884;47.450;19.124;2022-08-19T08:49:52;5.45;;;4.75;;
44214;SDS011;29884;47.450;19.124;2022-08-19T08:52:28;5.93;;;5.18;;
44214;SDS011;29884;47.450;19.124;2022-08-19T08:55:03;6.25;;;4.85;;
44214;SDS011;29884;47.450;19.124;2022-08-19T08:57:36;7.10;;;5.18;;
44214;SDS011;29884;47.450;19.124;2022-08-19T09:00:21;5.75;;;5.35;;
44214;SDS011;29884;47.450;19.124;2022-08-19T09:02:56;7.35;;;5.82;;
44214;SDS011;29884;47.450;19.124;2022-08-19T09:05:25;5.03;;;4.72;;
44214;SDS011;29884;47.450;19.124;2022-08-19T09:08:04;5.50;;;5.10;;
44214;SDS011;29884;47.450;19.124;2022-08-19T09:13:11;6.60;;;4.75;;
44214;SDS011;29884;47.450;19.124;2022-08-19T09:16:06;5.20;;;4.70;;
44214;SDS011;29884;47.450;19.124;2022-08-19T09:19:11;5.13;;;4.72;;
44214;SDS011;29884;47.450;19.124;2022-08-19T09:21:30;5.78;;;5.22;;
44214;SDS011;29884;47.450;19.124;2022-08-19T09:23:57;5.22;;;4.82;;
44214;SDS011;29884;47.450;19.124;2022-08-19T09:26:23;5.57;;;5.07;;
44214;SDS011;29884;47.450;19.124;2022-08-19T09:28:51;5.03;;;4.57;;
44214;SDS011;29884;47.450;19.124;2022-08-19T09:31:22;5.45;;;5.03;;
44214;SDS011;29884;47.450;19.124;2022-08-19T09:33:49;4.82;;;4.53;;
44214;SDS011;29884;47.450;19.124;2022-08-19T09:36:18;5.45;;;4.95;;
44214;SDS011;29884;47.450;19.124;2022-08-19T09:38:45;5.18;;;4.68;;
44214;SDS011;29884;47.450;19.124;2022-08-19T09:41:12;4.50;;;4.18;;
44214;SDS011;29884;47.450;19.124;2022-08-19T09:43:41;7.32;;;4.88;;
44214;SDS011;29884;47.450;19.124;2022-08-19T09:46:09;4.18;;;3.80;;
44214;SDS011;29884;47.450;19.124;2022-08-19T09:48:35;5.15;;;4.65;;
44214;SDS011;29884;47.450;19.124;2022-08-19T09:51:12;4.90;;;4.57;;
44214;SDS011;29884;47.450;19.124;2022-08-19T09:53:42;5.28;;;4.82;;
44214;SDS011;29884;47.450;19.124;2022-08-19T09:56:09;4.97;;;4.68;;
44214;SDS011;29884;47.450;19.124;2022-08-19T09:58:36;5.10;;;4.80;;
44214;SDS011;29884;47.450;19.124;2022-08-19T10:01:03;4.95;;;4.53;;
44214;SDS011;29884;47.450;19.124;2022-08-19T10:03:29;6.18;;;5.15;;
44214;SDS011;29884;47.450;19.124;2022-08-19T10:05:57;4.93;;;4.63;;
44214;SDS011;29884;47.450;19.124;2022-08-19T10:08:27;5.60;;;5.10;;
44214;SDS011;29884;47.450;19.124;2022-08-19T10:10:55;5.20;;;4.80;;
44214;SDS011;29884;47.450;19.124;2022-08-19T10:13:22;5.60;;;5.13;;
44214;SDS011;29884;47.450;19.124;2022-08-19T10:15:51;7.22;;;5.28;;
44214;SDS011;29884;47.450;19.124;2022-08-19T10:18:19;5.35;;;4.97;;
44214;SDS011;29884;47.450;19.124;2022-08-19T10:20:49;6.15;;;4.53;;
44214;SDS011;29884;47.450;19.124;2022-08-19T10:23:15;4.65;;;4.35;;
44214;SDS011;29884;47.450;19.124;2022-08-19T10:25:42;4.45;;;4.15;;
44214;SDS011;29884;47.450;19.124;2022-08-19T10:28:08;5.32;;;4.82;;
44214;SDS011;29884;47.450;19.124;2022-08-19T10:30:37;5.45;;;4.35;;
44214;SDS011;29884;47.450;19.124;2022-08-19T10:33:04;4.85;;;4.55;;
44214;SDS011;29884;47.450;19.124;2022-08-19T10:35:30;4.65;;;4.35;;
44214;SDS011;29884;47.450;19.124;2022-08-19T10:37:56;5.22;;;4.82;;
44214;SDS011;29884;47.450;19.124;2022-08-19T10:40:26;4.63;;;4.22;;
44214;SDS011;29884;47.450;19.124;2022-08-19T10:42:53;3.90;;;3.63;;
44214;SDS011;29884;47.450;19.124;2022-08-19T10:45:20;4.63;;;4.20;;
44214;SDS011;29884;47.450;19.124;2022-08-19T10:47:50;7.18;;;4.18;;
44214;SDS011;29884;47.450;19.124;2022-08-19T10:50:20;5.38;;;4.97;;
44214;SDS011;29884;47.450;19.124;2022-08-19T10:53:06;4.35;;;3.95;;
44214;SDS011;29884;47.450;19.124;2022-08-19T10:55:33;4.60;;;4.28;;
44214;SDS011;29884;47.450;19.124;2022-08-19T10:58:19;4.35;;;4.05;;
44214;SDS011;29884;47.450;19.124;2022-08-19T11:00:52;4.45;;;4.15;;
44214;SDS011;29884;47.450;19.124;2022-08-19T11:03:22;4.53;;;4.20;;
44214;SDS011;29884;47.450;19.124;2022-08-19T11:05:59;5.25;;;4.65;;
44214;SDS011;29884;47.450;19.124;2022-08-19T11:08:26;4.28;;;3.97;;
44214;SDS011;29884;47.450;19.124;2022-08-19T11:10:53;5.07;;;4.60;;
44214;SDS011;29884;47.450;19.124;2022-08-19T11:13:22;7.70;;;5.45;;
44214;SDS011;29884;47.450;19.124;2022-08-19T11:15:55;4.78;;;4.32;;
44214;SDS011;29884;47.450;19.124;2022-08-19T11:18:25;4.95;;;4.65;;
44214;SDS011;29884;47.450;19.124;2022-08-19T11:20:51;5.18;;;4.63;;
44214;SDS011;29884;47.450;19.124;2022-08-19T11:23:17;5.25;;;4.95;;
44214;SDS011;29884;47.450;19.124;2022-08-19T11:25:43;5.25;;;4.60;;
44214;SDS011;29884;47.450;19.124;2022-08-19T11:28:10;4.95;;;4.55;;
44214;SDS011;29884;47.450;19.124;2022-08-19T11:30:37;4.78;;;4.35;;
44214;SDS011;29884;47.450;19.124;2022-08-19T11:33:04;5.10;;;4.60;;
44214;SDS011;29884;47.450;19.124;2022-08-19T11:35:29;5.25;;;4.85;;
44214;SDS011;29884;47.450;19.124;2022-08-19T11:37:56;4.97;;;4.57;;
44214;SDS011;29884;47.450;19.124;2022-08-19T11:40:26;5.10;;;4.57;;
44214;SDS011;29884;47.450;19.124;2022-08-19T11:42:52;4.85;;;4.45;;
44214;SDS011;29884;47.450;19.124;2022-08-19T11:45:21;5.05;;;4.75;;
44214;SDS011;29884;47.450;19.124;2022-08-19T11:47:52;5.80;;;5.35;;
44214;SDS011;29884;47.450;19.124;2022-08-19T11:50:18;8.23;;;6.75;;
44214;SDS011;29884;47.450;19.124;2022-08-19T11:52:45;6.35;;;5.95;;
44214;SDS011;29884;47.450;19.124;2022-08-19T11:55:12;6.22;;;5.70;;
44214;SDS011;29884;47.450;19.124;2022-08-19T11:57:38;11.23;;;10.13;;
44214;SDS011;29884;47.450;19.124;2022-08-19T12:00:06;8.10;;;7.32;;
44214;SDS011;29884;47.450;19.124;2022-08-19T12:02:32;10.95;;;9.85;;
44214;SDS011;29884;47.450;19.124;2022-08-19T12:04:58;13.30;;;11.20;;
44214;SDS011;29884;47.450;19.124;2022-08-19T12:07:27;9.57;;;7.60;;
44214;SDS011;29884;47.450;19.124;2022-08-19T12:09:54;10.43;;;9.18;;
44214;SDS011;29884;47.450;19.124;2022-08-19T12:12:19;9.65;;;8.75;;
44214;SDS011;29884;47.450;19.124;2022-08-19T12:14:46;10.00;;;5.82;;
44214;SDS011;29884;47.450;19.124;2022-08-19T12:17:12;6.15;;;5.50;;
44214;SDS011;29884;47.450;19.124;2022-08-19T12:19:38;6.72;;;6.18;;
44214;SDS011;29884;47.450;19.124;2022-08-19T12:22:04;6.97;;;6.28;;
44214;SDS011;29884;47.450;19.124;2022-08-19T12:24:31;8.07;;;5.57;;
44214;SDS011;29884;47.450;19.124;2022-08-19T12:26:57;8.75;;;6.03;;
44214;SDS011;29884;47.450;19.124;2022-08-19T12:29:26;7.65;;;6.95;;
44214;SDS011;29884;47.450;19.124;2022-08-19T12:31:54;8.27;;;7.38;;
44214;SDS011;29884;47.450;19.124;2022-08-19T12:34:30;8.80;;;8.07;;
44214;SDS011;29884;47.450;19.124;2022-08-19T12:36:58;10.65;;;9.25;;
44214;SDS011;29884;47.450;19.124;2022-08-19T12:39:26;11.82;;;10.00;;
44214;SDS011;29884;47.450;19.124;2022-08-19T12:41:52;10.10;;;9.13;;
44214;SDS011;29884;47.450;19.124;2022-08-19T12:44:18;10.15;;;9.02;;
44214;SDS011;29884;47.450;19.124;2022-08-19T12:46:43;12.48;;;8.02;;
44214;SDS011;29884;47.450;19.124;2022-08-19T12:49:09;8.48;;;7.78;;
44214;SDS011;29884;47.450;19.124;2022-08-19T12:51:35;9.00;;;8.20;;
44214;SDS011;29884;47.450;19.124;2022-08-19T12:54:01;10.18;;;9.15;;
44214;SDS011;29884;47.450;19.124;2022-08-19T12:56:27;9.82;;;8.85;;
44214;SDS011;29884;47.450;19.124;2022-08-19T12:58:53;9.85;;;8.90;;
44214;SDS011;29884;47.450;19.124;2022-08-19T13:01:19;9.18;;;8.35;;
44214;SDS011;29884;47.450;19.124;2022-08-19T13:03:45;10.23;;;9.40;;
44214;SDS011;29884;47.450;19.124;2022-08-19T13:06:12;10.32;;;7.72;;
44214;SDS011;29884;47.450;19.124;2022-08-19T13:08:37;8.98;;;8.15;;
44214;SDS011;29884;47.450;19.124;2022-08-19T13:11:21;10.90;;;7.32;;
44214;SDS011;29884;47.450;19.124;2022-08-19T13:13:50;8.27;;;7.55;;
44214;SDS011;29884;47.450;19.124;2022-08-19T13:16:17;9.98;;;8.75;;
44214;SDS011;29884;47.450;19.124;2022-08-19T13:18:45;8.30;;;7.55;;
44214;SDS011;29884;47.450;19.124;2022-08-19T13:21:17;7.97;;;7.18;;
44214;SDS011;29884;47.450;19.124;2022-08-19T13:23:48;8.50;;;7.70;;
44214;SDS011;29884;47.450;19.124;2022-08-19T13:26:14;8.48;;;7.00;;
44214;SDS011;29884;47.450;19.124;2022-08-19T13:28:41;9.27;;;6.68;;
44214;SDS011;29884;47.450;19.124;2022-08-19T13:31:27;6.95;;;5.93;;
44214;SDS011;29884;47.450;19.124;2022-08-19T13:34:12;10.18;;;6.93;;
44214;SDS011;29884;47.450;19.124;2022-08-19T13:36:39;7.80;;;7.15;;
44214;SDS011;29884;47.450;19.124;2022-08-19T13:39:06;9.07;;;7.25;;
44214;SDS011;29884;47.450;19.124;2022-08-19T13:41:33;7.90;;;7.10;;
44214;SDS011;29884;47.450;19.124;2022-08-19T13:44:00;9.20;;;7.43;;
44214;SDS011;29884;47.450;19.124;2022-08-19T13:46:27;5.50;;;4.85;;
44214;SDS011;29884;47.450;19.124;2022-08-19T13:48:55;5.93;;;4.28;;
44214;SDS011;29884;47.450;19.124;2022-08-19T13:51:21;7.53;;;5.35;;
44214;SDS011;29884;47.450;19.124;2022-08-19T13:53:47;6.28;;;4.65;;
44214;SDS011;29884;47.450;19.124;2022-08-19T13:56:14;9.05;;;4.97;;
44214;SDS011;29884;47.450;19.124;2022-08-19T13:58:41;11.32;;;4.53;;
44214;SDS011;29884;47.450;19.124;2022-08-19T14:01:07;5.95;;;4.70;;
44214;SDS011;29884;47.450;19.124;2022-08-19T14:03:33;10.82;;;5.28;;
44214;SDS011;29884;47.450;19.124;2022-08-19T14:06:00;17.95;;;5.78;;
44214;SDS011;29884;47.450;19.124;2022-08-19T14:08:26;24.52;;;6.60;;
44214;SDS011;29884;47.450;19.124;2022-08-19T14:10:53;32.25;;;7.05;;
44214;SDS011;29884;47.450;19.124;2022-08-19T14:13:20;24.50;;;6.47;;
44214;SDS011;29884;47.450;19.124;2022-08-19T14:15:47;12.20;;;5.65;;
44214;SDS011;29884;47.450;19.124;2022-08-19T14:18:14;19.10;;;5.95;;
44214;SDS011;29884;47.450;19.124;2022-08-19T14:20:41;11.05;;;5.75;;
44214;SDS011;29884;47.450;19.124;2022-08-19T14:23:07;20.10;;;6.30;;
44214;SDS011;29884;47.450;19.124;2022-08-19T14:25:33;13.05;;;5.55;;
44214;SDS011;29884;47.450;19.124;2022-08-19T14:27:59;15.13;;;5.65;;
44214;SDS011;29884;47.450;19.124;2022-08-19T14:30:27;12.13;;;6.05;;
44214;SDS011;29884;47.450;19.124;2022-08-19T14:32:55;9.60;;;5.18;;
44214;SDS011;29884;47.450;19.124;2022-08-19T14:35:23;12.52;;;5.55;;
44214;SDS011;29884;47.450;19.124;2022-08-19T14:37:49;7.82;;;5.72;;
44214;SDS011;29884;47.450;19.124;2022-08-19T14:40:21;10.18;;;5.80;;
44214;SDS011;29884;47.450;19.124;2022-08-19T14:42:51;7.57;;;6.38;;
44214;SDS011;29884;47.450;19.124;2022-08-19T14:45:17;11.40;;;5.90;;
44214;SDS011;29884;47.450;19.124;2022-08-19T14:47:43;8.27;;;5.70;;
44214;SDS011;29884;47.450;19.124;2022-08-19T14:50:10;7.75;;;6.03;;
44214;SDS011;29884;47.450;19.124;2022-08-19T14:52:36;9.20;;;5.32;;
44214;SDS011;29884;47.450;19.124;2022-08-19T14:55:03;9.75;;;5.40;;
44214;SDS011;29884;47.450;19.124;2022-08-19T14:57:29;7.75;;;5.03;;